Latest Weather Observations for Canterbury

IDN60901

Issued at 10:31 pm EST Tuesday 3 May 2016 (issued every 10 minutes, with the page automatically refreshed every 10 minutes)

About weather observations | Map of Sydney area stations | Latest observations for Sydney area | Other Formats
Station Details ID: 066194 Name: CANTERBURY RACECOURSE AWS Lat: -33.91 Lon: 151.11 Height: 3.0 m
Data from the previous 72 hours. | See also: Recent months at Canterbury
Date/Time
EST
Tmp

°C
App
Tmp
°C
Dew
Point
°C
Rel
Hum
%
Delta-T

°C
Wind Press
QNH
hPa
Press
MSL
hPa
Rain
since
9 am
mm
Dir
 
Spd
km/h
Gust
km/h
Spd
kts
Gust
kts
03/10:30pm 17.7 15.4 5.9 46 5.8 NW 7 11 4 6 - - 0.0
03/10:00pm 18.4 15.7 5.6 43 6.2 NNW 9 17 5 9 - - 0.0
03/09:30pm 19.2 16.0 5.3 40 6.8 NNW 11 19 6 10 - - 0.0
03/09:00pm 19.1 16.3 5.2 40 6.8 NW 9 15 5 8 - - 0.0
03/08:30pm 19.8 16.6 5.1 38 7.2 NNW 11 17 6 9 - - 0.0
03/08:00pm 19.7 16.8 4.6 37 7.3 NNW 9 15 5 8 - - 0.0
03/07:30pm 20.6 16.5 4.2 34 7.9 NNW 15 26 8 14 - - 0.0
03/07:00pm 20.7 17.7 4.3 34 7.9 NNW 9 15 5 8 - - 0.0
03/06:30pm 21.1 17.4 4.6 34 8.0 NW 13 24 7 13 - - 0.0
03/06:00pm 21.3 18.4 4.4 33 8.2 NW 9 17 5 9 - - 0.0
03/05:30pm 22.0 18.4 3.2 29 9.0 NW 11 20 6 11 - - 0.0
03/05:00pm 22.9 19.1 3.9 29 9.3 NW 13 19 7 10 - - 0.0
03/04:30pm 24.4 20.1 3.1 25 10.3 WNW 15 28 8 15 - - 0.0
03/04:00pm 24.9 20.3 3.5 25 10.5 NW 17 26 9 14 - - 0.0
03/03:30pm 25.0 19.9 3.0 24 10.7 NW 19 35 10 19 - - 0.0
03/03:00pm 25.4 21.7 4.5 26 10.5 NW 13 24 7 13 - - 0.0
03/02:30pm 25.1 20.5 3.7 25 10.5 WNW 17 30 9 16 - - 0.0
03/02:00pm 24.5 20.2 7.2 33 9.0 NW 19 33 10 18 - - 0.0
03/01:30pm 24.0 19.0 6.3 32 9.1 NW 22 35 12 19 - - 0.0
03/01:00pm 23.6 19.4 7.3 35 8.5 NNW 19 32 10 17 - - 0.0
03/12:30pm 23.0 19.2 7.5 37 8.1 NNW 17 30 9 16 - - 0.0
03/12:00pm 22.5 18.3 8.2 40 7.5 NW 20 35 11 19 - - 0.0
03/11:30am 22.1 17.6 7.1 38 7.7 NW 20 32 11 17 - - 0.0
03/11:00am 21.4 17.2 7.3 40 7.3 NW 19 28 10 15 - - 0.0
03/10:30am 20.7 17.2 7.3 42 6.9 NW 15 26 8 14 - - 0.0
03/10:00am 20.5 18.1 8.5 46 6.3 WNW 11 20 6 11 - - 0.0
03/09:30am 18.6 17.3 7.7 49 5.5 NNW 4 9 2 5 - - 0.0
03/09:00am 16.6 16.0 7.5 55 4.6 CALM 0 0 0 0 - - 0.0
03/08:30am 15.5 14.7 8.3 62 3.6 NNW 2 7 1 4 - - 0.0
03/08:00am 13.6 13.2 8.4 71 2.6 CALM 0 0 0 0 - - 0.0
03/07:30am 10.1 9.9 8.9 92 0.6 CALM 0 0 0 0 - - 0.0
03/07:00am 8.3 7.7 7.5 95 0.4 CALM 0 0 0 0 - - 0.0
03/06:30am 7.7 6.9 6.5 92 0.5 CALM 0 0 0 0 - - 0.0
03/06:00am 8.4 7.4 7.3 93 0.5 ENE 2 7 1 4 - - 0.0
03/05:30am 8.3 7.6 7.1 92 0.6 CALM 0 6 0 3 - - 0.0
03/05:00am 8.3 7.6 7.1 92 0.6 CALM 0 6 0 3 - - 0.0
03/04:30am 8.6 8.0 7.2 91 0.7 CALM 0 0 0 0 - - 0.0
03/04:00am 9.3 8.9 8.1 92 0.6 CALM 0 0 0 0 - - 0.0
03/03:30am 9.5 9.1 8.1 91 0.7 CALM 0 0 0 0 - - 0.0
03/03:00am 9.5 9.0 7.9 90 0.8 CALM 0 0 0 0 - - 0.0
03/02:30am 9.9 9.5 8.2 89 0.8 CALM 0 0 0 0 - - 0.0
03/02:00am 10.0 9.6 8.1 88 0.9 CALM 0 6 0 3 - - 0.0
03/01:30am 10.3 9.2 8.4 88 0.9 ENE 4 7 2 4 - - 0.0
03/01:00am 10.6 10.3 8.7 88 0.9 CALM 0 0 0 0 - - 0.0
03/12:30am 10.7 10.4 8.5 86 1.1 CALM 0 2 0 1 - - 0.0
03/12:00am 11.7 10.8 9.4 86 1.2 ENE 4 6 2 3 - - 0.0
 
Date/Time
EST
Tmp

°C
App
Tmp
°C
Dew
Point
°C
Rel
Hum
%
Delta-T

°C
Wind Press
QNH
hPa
Press
MSL
hPa
Rain
since
9 am
mm
Dir
 
Spd
km/h
Gust
km/h
Spd
kts
Gust
kts
02/11:30pm 11.5 11.2 8.5 82 1.5 CALM 0 0 0 0 - - 0.0
02/11:00pm 11.7 10.2 8.6 81 1.5 ENE 6 7 3 4 - - 0.0
02/10:30pm 12.2 12.0 9.2 82 1.5 CALM 0 0 0 0 - - 0.0
02/10:00pm 12.9 12.6 8.6 75 2.1 CALM 0 0 0 0 - - 0.0
02/09:30pm 13.9 13.1 9.7 76 2.2 NW 4 9 2 5 - - 0.0
02/09:00pm 13.8 12.6 9.5 75 2.2 S 6 11 3 6 - - 0.0
02/08:30pm 14.4 14.5 10.2 76 2.2 CALM 0 0 0 0 - - 0.0
02/08:00pm 15.2 13.8 8.9 66 3.2 NNW 6 9 3 5 - - 0.0
02/07:30pm 16.4 15.6 11.1 71 2.8 NNW 6 11 3 6 - - 0.0
02/07:00pm 16.4 17.3 12.8 79 2.0 CALM 0 0 0 0 - - 0.0
02/06:30pm 16.7 17.9 13.8 83 1.6 CALM 0 0 0 0 - - 0.0
02/06:00pm 17.2 18.1 15.0 87 1.3 NE 4 9 2 5 - - 0.0
02/05:30pm 16.9 17.8 13.0 78 2.2 CALM 0 0 0 0 - - 0.0
02/05:00pm 17.8 18.7 12.9 73 2.7 CALM 0 0 0 0 - - 0.0
02/04:30pm 19.8 20.9 13.5 67 3.6 CALM 0 0 0 0 - - 0.0
02/04:00pm 20.3 19.9 13.0 63 4.1 NE 7 11 4 6 - - 0.0
02/03:30pm 20.6 20.3 13.3 63 4.2 E 7 9 4 5 - - 0.0
02/03:00pm 20.8 20.0 12.8 60 4.5 E 9 13 5 7 - - 0.0
02/02:30pm 21.1 19.9 11.7 55 5.2 ENE 9 15 5 8 - - 0.0
02/02:00pm 21.2 19.8 11.0 52 5.6 SSE 9 15 5 8 - - 0.0
02/01:30pm 22.3 21.3 7.3 38 7.8 SSE 2 11 1 6 - - 0.0
02/01:00pm 22.3 20.4 7.7 39 7.6 WNW 7 13 4 7 - - 0.0
02/12:30pm 22.9 19.8 7.4 37 8.1 NNW 13 17 7 9 - - 0.0
02/12:00pm 21.9 20.5 8.8 43 6.9 E 6 15 3 8 - - 0.0
02/11:30am 20.7 19.0 7.7 43 6.7 WSW 6 13 3 7 - - 0.0
02/11:00am 20.8 19.0 8.1 44 6.6 ENE 7 11 4 6 - - 0.0
02/10:30am 20.3 18.2 6.6 41 6.9 WNW 7 13 4 7 - - 0.0
02/10:00am 19.8 18.8 8.8 49 5.8 WNW 4 11 2 6 - - 0.0
02/09:30am 18.2 15.8 7.0 48 5.6 NW 9 13 5 7 - - 0.0
02/09:00am 17.1 14.2 6.3 49 5.3 WNW 11 17 6 9 - - 0.0
02/08:30am 16.2 14.7 6.6 53 4.7 WNW 4 13 2 7 - - 0.0
02/08:00am 14.7 14.3 8.4 66 3.2 CALM 0 0 0 0 - - 0.0
02/07:30am 11.3 11.2 9.4 88 1.0 CALM 0 0 0 0 - - 0.0
02/07:00am 9.1 8.6 7.7 91 0.7 CALM 0 0 0 0 - - 0.0
02/06:30am 8.8 8.2 7.3 90 0.7 CALM 0 0 0 0 - - 0.0
02/06:00am 8.8 8.1 6.8 87 0.9 CALM 0 0 0 0 - - 0.0
02/05:30am 9.5 8.9 7.6 88 0.9 CALM 0 0 0 0 - - 0.0
02/05:00am 9.5 8.8 6.9 84 1.2 CALM 0 0 0 0 - - 0.0
02/04:30am 10.1 8.5 8.0 87 1.0 WSW 6 7 3 4 - - 0.0
02/04:00am 10.2 9.6 7.4 83 1.3 CALM 0 0 0 0 - - 0.0
02/03:30am 9.9 9.1 6.6 80 1.5 CALM 0 0 0 0 - - 0.0
02/03:00am 10.7 9.0 7.4 80 1.6 WSW 6 9 3 5 - - 0.0
02/02:30am 11.5 10.9 7.2 75 2.1 CALM 0 0 0 0 - - 0.0
02/02:00am 12.1 11.5 7.4 73 2.3 CALM 0 0 0 0 - - 0.0
02/01:30am 14.0 12.8 6.4 60 3.6 SW 2 6 1 3 - - 0.0
02/01:00am 15.4 13.0 6.9 57 4.2 WSW 9 13 5 7 - - 0.0
02/12:30am 15.9 13.5 6.9 55 4.4 WSW 9 15 5 8 - - 0.0
02/12:00am 16.1 14.3 7.1 55 4.5 SW 6 11 3 6 - - 0.0
 
Date/Time
EST
Tmp

°C
App
Tmp
°C
Dew
Point
°C
Rel
Hum
%
Delta-T

°C
Wind Press
QNH
hPa
Press
MSL
hPa
Rain
since
9 am
mm
Dir
 
Spd
km/h
Gust
km/h
Spd
kts
Gust
kts
01/11:30pm 16.8 14.0 6.9 52 4.9 WSW 11 15 6 8 - - 0.0
01/11:00pm 16.0 14.0 7.0 55 4.4 W 7 9 4 5 - - 0.0
01/10:30pm 17.2 15.1 6.7 50 5.2 W 7 13 4 7 - - 0.0
01/10:00pm 18.7 15.6 7.2 47 5.8 WSW 13 17 7 9 - - 0.0
01/09:30pm 19.4 16.6 6.8 44 6.3 W 11 17 6 9 - - 0.0
01/09:00pm 19.9 17.6 7.3 44 6.4 SW 9 13 5 7 - - 0.0
01/08:30pm 20.8 18.8 7.1 41 7.0 WSW 7 11 4 6 - - 0.0
01/08:00pm 22.8 18.9 7.0 36 8.2 W 17 30 9 16 - - 0.0
01/07:30pm 22.6 18.6 6.8 36 8.1 W 17 26 9 14 - - 0.0
01/07:00pm 22.3 20.1 6.1 35 8.2 W 7 11 4 6 - - 0.0
01/06:30pm 24.1 20.3 5.9 31 9.3 WNW 15 28 8 15 - - 0.0
01/06:00pm 23.5 21.3 6.3 33 8.8 NW 7 19 4 10 - - 0.0
01/05:30pm 24.8 21.5 6.5 31 9.5 WNW 13 22 7 12 - - 0.0
01/05:00pm 26.1 21.0 7.7 31 9.8 NW 24 41 13 22 - - 0.0
01/04:38pm 27.1 21.0 6.5 27 10.8 WNW 28 46 15 25 - - 0.0
01/04:30pm 27.2 21.4 8.1 30 10.3 WNW 28 43 15 23 - - 0.0
01/04:17pm 27.4 21.9 9.3 32 10.0 WNW 28 48 15 26 - - 0.0
01/04:00pm 27.3 23.2 10.1 34 9.6 NW 22 43 12 23 - - 0.0
01/03:30pm 26.6 24.4 15.0 49 7.0 NNW 20 35 11 19 - - 0.0
01/03:00pm 26.6 24.6 15.6 50 6.7 NNW 20 33 11 18 - - 0.0
01/02:30pm 25.6 23.5 15.3 53 6.2 NNW 20 35 11 19 - - 0.0
01/02:00pm 26.4 24.3 16.3 53 6.2 NNW 22 35 12 19 - - 0.0
01/01:30pm 25.5 22.9 15.8 55 5.9 NNW 24 37 13 20 - - 0.0
01/01:00pm 24.8 22.8 16.5 60 5.1 NNW 22 35 12 19 - - 0.0
01/12:30pm 22.7 20.5 16.0 66 4.0 NNW 22 32 12 17 - - 0.0
01/12:00pm 22.3 20.5 16.1 68 3.7 NNW 20 30 11 16 - - 0.0
01/11:30am 21.9 20.4 16.4 71 3.3 NNW 19 28 10 15 - - 0.0
01/11:00am 21.4 20.4 16.6 74 2.9 NNW 17 30 9 16 - - 0.0
01/10:30am 21.0 20.5 17.0 78 2.4 NNW 15 24 8 13 - - 0.0
01/10:00am 20.6 20.1 17.0 80 2.2 N 15 24 8 13 - - 0.0
01/09:30am 20.2 20.7 17.4 84 1.7 N 11 20 6 11 - - 0.0
01/09:00am 19.2 18.5 17.3 89 1.2 N 17 24 9 13 - - 2.4
01/08:30am 18.8 18.6 17.5 92 0.8 N 15 20 8 11 - - 2.4
01/08:00am 18.5 18.2 17.3 93 0.7 N 15 22 8 12 - - 2.0
01/07:53am 18.3 18.4 17.5 95 0.5 N 13 20 7 11 - - 2.0
01/07:30am 17.7 18.8 17.1 96 0.4 NNW 7 11 4 6 - - 1.4
01/07:14am 17.5 18.5 16.9 96 0.4 N 7 13 4 7 - - 1.2
01/07:00am 17.4 18.4 16.9 97 0.3 NNW 7 11 4 6 - - 1.0
01/06:57am 17.2 18.1 16.6 96 0.4 NNW 7 13 4 7 - - 0.8
01/06:47am 17.0 18.0 16.4 96 0.4 NNW 6 9 3 5 - - 0.6
01/06:30am 16.9 17.7 16.3 96 0.4 NW 7 11 4 6 - - 0.4
01/06:20am 16.7 17.0 16.1 96 0.4 NNW 9 15 5 8 - - 0.4
01/06:00am 16.4 17.0 15.8 96 0.4 NW 7 13 4 7 - - 0.2
01/05:30am 16.1 16.7 15.9 99 0.1 W 7 17 4 9 - - 0.2
01/05:00am 15.7 17.1 15.5 99 0.1 NNW 2 7 1 4 - - 0.2
01/04:30am 15.9 17.0 15.7 99 0.1 NW 4 9 2 5 - - 0.2
01/04:13am 15.4 17.1 15.2 99 0.1 CALM 0 0 0 0 - - 0.2
01/04:00am 14.8 16.2 14.3 97 0.3 CALM 0 0 0 0 - - 0.2
01/03:53am 14.8 16.2 14.5 98 0.2 CALM 0 0 0 0 - - 0.2
01/03:30am 14.9 16.4 14.6 98 0.2 CALM 0 0 0 0 - - 0.2
01/03:24am 15.0 16.5 14.7 98 0.2 CALM 0 0 0 0 - - 0.2
01/03:01am 14.4 15.6 13.8 96 0.3 CALM 0 0 0 0 - - 0.2
01/03:00am 14.3 15.5 13.7 96 0.3 CALM 0 0 0 0 - - 0.2
01/02:59am 14.4 15.6 13.8 96 0.3 CALM 0 0 0 0 - - 0.2
01/02:40am 14.8 16.1 14.2 96 0.3 CALM 0 0 0 0 - - 0.2
01/02:31am 15.4 17.0 14.9 97 0.3 CALM 0 0 0 0 - - 0.2
01/02:30am 15.3 16.9 14.8 97 0.3 CALM 0 0 0 0 - - 0.2
01/02:00am 15.3 16.8 14.7 96 0.3 CALM 0 0 0 0 - - 0.2
01/01:52am 15.2 16.7 14.6 96 0.3 CALM 0 0 0 0 - - 0.2
01/01:30am 15.7 17.4 15.1 96 0.3 CALM 0 0 0 0 - - 0.2
01/01:00am 15.6 17.1 14.6 94 0.6 CALM 0 0 0 0 - - 0.2
01/12:30am 14.9 15.9 13.3 90 0.9 CALM 0 0 0 0 - - 0.2
01/12:00am 16.5 18.3 15.5 94 0.6 CALM 0 0 0 0 - - 0.2
 
Date/Time
EST
Tmp

°C
App
Tmp
°C
Dew
Point
°C
Rel
Hum
%
Delta-T

°C
Wind Press
QNH
hPa
Press
MSL
hPa
Rain
since
9 am
mm
Dir
 
Spd
km/h
Gust
km/h
Spd
kts
Gust
kts
30/11:30pm 17.1 19.2 16.3 95 0.5 CALM 0 0 0 0 - - 0.2
30/11:00pm 17.4 19.5 16.3 93 0.7 CALM 0 0 0 0 - - 0.2

Latest Capital City Observations: Canberra | Sydney | Melbourne | Brisbane | Adelaide | Perth | Hobart | Darwin

Other Formats:

Comma delimited format used in spreadsheet applications
http://www.bom.gov.au/fwo/IDN60901/IDN60901.94766.axf

JavaScript Object Notation format (JSON) in row-major order
http://www.bom.gov.au/fwo/IDN60901/IDN60901.94766.json